Terminal Aerodrome Forecast
Issued by NWS

Home | Current Version | Previous Version | Text Only | Print | Product List | Glossary On
Versions: 1 2 3 4 5 6 7 8 9 10 11 12 13 14 15 16 17 18 19 20 21 22 23 24 25 26 27
000
FTUS41 KAKQ 052200 AAA
TAFPHF
TAF AMD
KPHF 052214Z 0522/0618 02016G24KT 4SM -RA BR OVC008
      TEMPO 0522/0601 1SM -PLSN BR OVC005
     FM060100 02014G22KT 2SM PLSN BR OVC007
     FM060400 01015G23KT P6SM BKN025
     FM060800 01012G18KT P6SM SCT030
     FM061200 02012G17KT P6SM FEW040=

USA.gov is the U.S. government's official web portal to all federal, state and local government web resources and services.